San Jose, California
Current Conditions -  °F | °C
As of 10:53 AM on Friday 24 Oct 2014 (Local Time) from KSJC Reporting Station
Few Clouds Few Clouds  
Wind Chill: 64°   Ceiling: Unl
Heat Index: 64°   Visibility: 10mi
Dew Point: 55°   Wind: 0mph
Humidity: 72%   Direction: NA
Pressure: 29.96"   Gusts: NA
Location:  37.35°N, 121.9°W
Report Text: KSJC 241753Z 00000KT 10SM FEW012 18/13 A2996 RMK AO2 SLP144 T01780128 10178 20106 58002
Loading
Personal Weather Stations






























Interactive Weather Map
Tropical Storm Tracking
New forecast layout! Learn more

10-Day Weather Forecast

Advertisements
Track Severe Weather on mobile